sensor_id;sensor_type;location;lat;lon;timestamp;P1;durP1;ratioP1;P2;durP2;ratioP2
28958;SDS011;16066;0.000;0.000;2023-11-25T06:33:01;7.77;;;3.83;;
28958;SDS011;16066;0.000;0.000;2023-11-25T06:35:26;9.67;;;4.00;;
28958;SDS011;16066;0.000;0.000;2023-11-25T06:37:52;7.47;;;4.00;;
28958;SDS011;16066;0.000;0.000;2023-11-25T06:40:18;10.40;;;3.93;;
28958;SDS011;16066;0.000;0.000;2023-11-25T06:42:45;11.03;;;4.07;;
28958;SDS011;16066;0.000;0.000;2023-11-25T06:45:10;10.30;;;4.33;;
28958;SDS011;16066;0.000;0.000;2023-11-25T06:47:38;9.53;;;4.37;;
28958;SDS011;16066;0.000;0.000;2023-11-25T06:50:05;9.30;;;4.60;;
28958;SDS011;16066;0.000;0.000;2023-11-25T06:52:30;6.07;;;3.50;;
28958;SDS011;16066;0.000;0.000;2023-11-25T06:54:56;10.63;;;4.10;;
28958;SDS011;16066;0.000;0.000;2023-11-25T06:57:22;6.23;;;3.73;;
28958;SDS011;16066;0.000;0.000;2023-11-25T06:59:47;8.37;;;3.57;;
28958;SDS011;16066;0.000;0.000;2023-11-25T07:02:13;6.50;;;3.27;;
28958;SDS011;16066;0.000;0.000;2023-11-25T07:04:39;6.50;;;4.03;;
28958;SDS011;16066;0.000;0.000;2023-11-25T07:07:04;6.83;;;3.50;;
28958;SDS011;16066;0.000;0.000;2023-11-25T07:09:30;8.93;;;3.87;;
28958;SDS011;16066;0.000;0.000;2023-11-25T07:11:56;11.73;;;4.33;;
28958;SDS011;16066;0.000;0.000;2023-11-25T07:14:21;5.97;;;4.00;;
28958;SDS011;16066;0.000;0.000;2023-11-25T07:16:47;8.27;;;3.70;;
28958;SDS011;16066;0.000;0.000;2023-11-25T07:19:13;7.50;;;4.17;;
28958;SDS011;16066;0.000;0.000;2023-11-25T07:21:39;6.97;;;4.70;;
28958;SDS011;16066;0.000;0.000;2023-11-25T07:24:05;6.57;;;3.70;;
28958;SDS011;16066;0.000;0.000;2023-11-25T07:26:33;6.67;;;4.40;;
28958;SDS011;16066;0.000;0.000;2023-11-25T07:29:04;12.57;;;4.50;;
28958;SDS011;16066;0.000;0.000;2023-11-25T07:31:30;8.13;;;4.40;;
28958;SDS011;16066;0.000;0.000;2023-11-25T07:33:57;9.93;;;4.03;;
28958;SDS011;16066;0.000;0.000;2023-11-25T07:36:23;8.37;;;4.90;;
28958;SDS011;16066;0.000;0.000;2023-11-25T07:38:49;11.47;;;4.63;;
28958;SDS011;16066;0.000;0.000;2023-11-25T07:41:15;8.87;;;3.90;;
28958;SDS011;16066;0.000;0.000;2023-11-25T07:43:41;8.40;;;4.17;;
28958;SDS011;16066;0.000;0.000;2023-11-25T07:46:06;7.93;;;4.10;;
28958;SDS011;16066;0.000;0.000;2023-11-25T07:48:34;7.00;;;4.30;;
28958;SDS011;16066;0.000;0.000;2023-11-25T07:51:01;4.70;;;3.80;;
28958;SDS011;16066;0.000;0.000;2023-11-25T07:53:27;7.93;;;4.43;;
28958;SDS011;16066;0.000;0.000;2023-11-25T07:55:53;8.67;;;4.67;;
28958;SDS011;16066;0.000;0.000;2023-11-25T07:58:19;6.37;;;4.17;;
28958;SDS011;16066;0.000;0.000;2023-11-25T08:00:47;9.20;;;4.40;;
28958;SDS011;16066;0.000;0.000;2023-11-25T08:03:13;13.13;;;3.80;;
28958;SDS011;16066;0.000;0.000;2023-11-25T08:05:38;6.90;;;3.60;;
28958;SDS011;16066;0.000;0.000;2023-11-25T08:08:04;7.87;;;3.77;;
28958;SDS011;16066;0.000;0.000;2023-11-25T08:10:30;13.57;;;4.00;;
28958;SDS011;16066;0.000;0.000;2023-11-25T08:13:00;8.90;;;3.40;;
28958;SDS011;16066;0.000;0.000;2023-11-25T08:15:26;11.47;;;4.20;;
28958;SDS011;16066;0.000;0.000;2023-11-25T08:17:52;7.20;;;3.83;;
28958;SDS011;16066;0.000;0.000;2023-11-25T08:20:18;7.90;;;3.90;;
28958;SDS011;16066;0.000;0.000;2023-11-25T08:22:45;11.93;;;3.93;;
28958;SDS011;16066;0.000;0.000;2023-11-25T08:25:11;9.30;;;3.30;;
28958;SDS011;16066;0.000;0.000;2023-11-25T08:27:37;8.13;;;3.50;;
28958;SDS011;16066;0.000;0.000;2023-11-25T08:30:04;11.43;;;3.60;;
28958;SDS011;16066;0.000;0.000;2023-11-25T08:32:34;5.60;;;3.10;;
28958;SDS011;16066;0.000;0.000;2023-11-25T08:35:04;5.60;;;3.03;;
28958;SDS011;16066;0.000;0.000;2023-11-25T08:37:31;7.93;;;3.20;;
28958;SDS011;16066;0.000;0.000;2023-11-25T08:39:57;9.87;;;3.20;;
28958;SDS011;16066;0.000;0.000;2023-11-25T08:42:23;5.33;;;3.10;;
28958;SDS011;16066;0.000;0.000;2023-11-25T08:44:51;7.93;;;3.10;;
28958;SDS011;16066;0.000;0.000;2023-11-25T08:47:17;4.93;;;2.53;;
28958;SDS011;16066;0.000;0.000;2023-11-25T08:49:43;7.40;;;2.90;;
28958;SDS011;16066;0.000;0.000;2023-11-25T08:52:10;6.37;;;3.10;;
28958;SDS011;16066;0.000;0.000;2023-11-25T08:54:37;8.83;;;2.80;;
28958;SDS011;16066;0.000;0.000;2023-11-25T08:57:02;6.93;;;3.07;;
28958;SDS011;16066;0.000;0.000;2023-11-25T08:59:28;8.27;;;2.80;;
28958;SDS011;16066;0.000;0.000;2023-11-25T09:01:56;5.20;;;2.50;;
28958;SDS011;16066;0.000;0.000;2023-11-25T09:04:23;6.40;;;2.57;;
28958;SDS011;16066;0.000;0.000;2023-11-25T09:06:50;6.73;;;2.77;;
28958;SDS011;16066;0.000;0.000;2023-11-25T09:09:17;7.13;;;2.63;;
28958;SDS011;16066;0.000;0.000;2023-11-25T09:11:44;5.23;;;2.97;;
28958;SDS011;16066;0.000;0.000;2023-11-25T09:14:10;7.07;;;2.83;;
28958;SDS011;16066;0.000;0.000;2023-11-25T09:16:36;6.13;;;2.47;;
28958;SDS011;16066;0.000;0.000;2023-11-25T09:19:01;4.23;;;2.53;;
28958;SDS011;16066;0.000;0.000;2023-11-25T09:21:28;6.83;;;2.83;;
28958;SDS011;16066;0.000;0.000;2023-11-25T09:23:54;5.20;;;2.70;;
28958;SDS011;16066;0.000;0.000;2023-11-25T09:26:22;6.00;;;3.07;;
28958;SDS011;16066;0.000;0.000;2023-11-25T09:28:49;6.13;;;2.73;;
28958;SDS011;16066;0.000;0.000;2023-11-25T09:31:15;7.63;;;3.37;;
28958;SDS011;16066;0.000;0.000;2023-11-25T09:33:41;5.30;;;3.30;;
28958;SDS011;16066;0.000;0.000;2023-11-25T09:36:07;5.90;;;2.40;;
28958;SDS011;16066;0.000;0.000;2023-11-25T09:38:34;6.03;;;2.57;;
28958;SDS011;16066;0.000;0.000;2023-11-25T09:41:00;6.27;;;2.60;;
28958;SDS011;16066;0.000;0.000;2023-11-25T09:43:25;4.40;;;2.80;;
28958;SDS011;16066;0.000;0.000;2023-11-25T09:45:51;7.70;;;3.60;;
28958;SDS011;16066;0.000;0.000;2023-11-25T09:48:18;3.73;;;2.43;;
28958;SDS011;16066;0.000;0.000;2023-11-25T09:50:44;6.10;;;3.50;;
28958;SDS011;16066;0.000;0.000;2023-11-25T09:53:10;8.60;;;3.00;;
28958;SDS011;16066;0.000;0.000;2023-11-25T09:55:42;10.00;;;3.10;;
28958;SDS011;16066;0.000;0.000;2023-11-25T09:58:18;9.80;;;3.17;;
28958;SDS011;16066;0.000;0.000;2023-11-25T10:00:43;8.67;;;3.77;;
28958;SDS011;16066;0.000;0.000;2023-11-25T10:03:09;6.37;;;2.57;;
28958;SDS011;16066;0.000;0.000;2023-11-25T10:05:37;4.70;;;2.90;;
28958;SDS011;16066;0.000;0.000;2023-11-25T10:08:02;5.33;;;3.03;;
28958;SDS011;16066;0.000;0.000;2023-11-25T10:10:29;6.80;;;3.33;;
28958;SDS011;16066;0.000;0.000;2023-11-25T10:12:55;7.67;;;2.87;;
28958;SDS011;16066;0.000;0.000;2023-11-25T10:15:20;7.60;;;2.97;;
28958;SDS011;16066;0.000;0.000;2023-11-25T10:17:49;9.70;;;3.27;;
28958;SDS011;16066;0.000;0.000;2023-11-25T10:20:15;8.90;;;3.17;;
28958;SDS011;16066;0.000;0.000;2023-11-25T10:22:49;7.27;;;2.83;;
28958;SDS011;16066;0.000;0.000;2023-11-25T10:25:18;7.90;;;3.40;;
28958;SDS011;16066;0.000;0.000;2023-11-25T10:27:46;13.40;;;2.97;;
28958;SDS011;16066;0.000;0.000;2023-11-25T10:30:12;9.73;;;3.37;;
28958;SDS011;16066;0.000;0.000;2023-11-25T10:32:42;5.50;;;2.90;;
28958;SDS011;16066;0.000;0.000;2023-11-25T10:35:08;6.07;;;3.27;;
28958;SDS011;16066;0.000;0.000;2023-11-25T10:37:35;7.27;;;3.23;;
28958;SDS011;16066;0.000;0.000;2023-11-25T10:40:06;7.03;;;2.77;;
28958;SDS011;16066;0.000;0.000;2023-11-25T10:42:39;4.63;;;2.50;;
28958;SDS011;16066;0.000;0.000;2023-11-25T10:45:15;7.43;;;3.40;;
28958;SDS011;16066;0.000;0.000;2023-11-25T10:47:41;11.60;;;3.20;;
28958;SDS011;16066;0.000;0.000;2023-11-25T10:50:07;10.03;;;3.50;;
28958;SDS011;16066;0.000;0.000;2023-11-25T10:52:33;6.00;;;2.73;;
28958;SDS011;16066;0.000;0.000;2023-11-25T10:55:03;6.83;;;2.73;;
28958;SDS011;16066;0.000;0.000;2023-11-25T10:57:31;5.80;;;2.70;;
28958;SDS011;16066;0.000;0.000;2023-11-25T10:59:58;9.07;;;2.70;;
28958;SDS011;16066;0.000;0.000;2023-11-25T11:02:25;7.93;;;3.30;;
28958;SDS011;16066;0.000;0.000;2023-11-25T11:04:56;5.87;;;2.93;;
28958;SDS011;16066;0.000;0.000;2023-11-25T11:07:24;7.73;;;2.77;;
28958;SDS011;16066;0.000;0.000;2023-11-25T11:09:53;10.80;;;2.80;;
28958;SDS011;16066;0.000;0.000;2023-11-25T11:12:32;7.87;;;2.70;;
28958;SDS011;16066;0.000;0.000;2023-11-25T11:15:03;7.33;;;3.00;;
28958;SDS011;16066;0.000;0.000;2023-11-25T11:17:48;6.53;;;2.90;;
28958;SDS011;16066;0.000;0.000;2023-11-25T11:20:31;5.63;;;3.00;;
28958;SDS011;16066;0.000;0.000;2023-11-25T11:23:01;5.00;;;2.80;;
28958;SDS011;16066;0.000;0.000;2023-11-25T11:25:33;7.77;;;3.23;;
28958;SDS011;16066;0.000;0.000;2023-11-25T11:28:20;6.40;;;3.00;;
28958;SDS011;16066;0.000;0.000;2023-11-25T11:33:54;8.63;;;3.33;;
28958;SDS011;16066;0.000;0.000;2023-11-25T11:36:29;6.80;;;3.63;;
28958;SDS011;16066;0.000;0.000;2023-11-25T11:38:56;6.60;;;3.17;;
28958;SDS011;16066;0.000;0.000;2023-11-25T11:44:01;8.30;;;2.97;;
28958;SDS011;16066;0.000;0.000;2023-11-25T11:46:28;7.90;;;3.80;;
28958;SDS011;16066;0.000;0.000;2023-11-25T11:48:54;10.93;;;3.87;;
28958;SDS011;16066;0.000;0.000;2023-11-25T11:51:22;6.10;;;3.50;;
28958;SDS011;16066;0.000;0.000;2023-11-25T11:57:00;9.30;;;3.37;;
28958;SDS011;16066;0.000;0.000;2023-11-25T12:02:29;7.50;;;3.13;;
28958;SDS011;16066;0.000;0.000;2023-11-25T12:04:58;5.57;;;3.70;;
28958;SDS011;16066;0.000;0.000;2023-11-25T12:07:25;4.00;;;2.90;;
28958;SDS011;16066;0.000;0.000;2023-11-25T12:09:55;14.10;;;3.83;;
28958;SDS011;16066;0.000;0.000;2023-11-25T12:12:21;7.67;;;3.17;;
28958;SDS011;16066;0.000;0.000;2023-11-25T12:14:47;6.53;;;3.00;;
28958;SDS011;16066;0.000;0.000;2023-11-25T12:17:13;5.07;;;2.93;;
28958;SDS011;16066;0.000;0.000;2023-11-25T12:19:40;6.30;;;3.70;;
28958;SDS011;16066;0.000;0.000;2023-11-25T12:22:08;6.50;;;3.40;;
28958;SDS011;16066;0.000;0.000;2023-11-25T12:24:34;7.40;;;3.60;;
28958;SDS011;16066;0.000;0.000;2023-11-25T12:27:00;8.70;;;4.33;;
28958;SDS011;16066;0.000;0.000;2023-11-25T12:29:32;4.47;;;3.50;;
28958;SDS011;16066;0.000;0.000;2023-11-25T12:31:58;7.70;;;4.00;;
28958;SDS011;16066;0.000;0.000;2023-11-25T12:34:24;5.90;;;3.70;;
28958;SDS011;16066;0.000;0.000;2023-11-25T12:36:50;6.63;;;3.80;;
28958;SDS011;16066;0.000;0.000;2023-11-25T12:39:16;10.87;;;3.20;;
28958;SDS011;16066;0.000;0.000;2023-11-25T12:41:41;8.90;;;3.07;;
28958;SDS011;16066;0.000;0.000;2023-11-25T12:44:08;18.33;;;4.73;;
28958;SDS011;16066;0.000;0.000;2023-11-25T12:46:35;6.87;;;4.03;;
28958;SDS011;16066;0.000;0.000;2023-11-25T12:49:20;5.77;;;3.50;;
28958;SDS011;16066;0.000;0.000;2023-11-25T12:51:47;4.20;;;3.13;;
28958;SDS011;16066;0.000;0.000;2023-11-25T12:54:13;7.50;;;4.00;;
28958;SDS011;16066;0.000;0.000;2023-11-25T12:56:39;7.50;;;3.83;;
28958;SDS011;16066;0.000;0.000;2023-11-25T12:59:07;5.63;;;3.43;;
28958;SDS011;16066;0.000;0.000;2023-11-25T13:01:32;6.80;;;4.40;;
28958;SDS011;16066;0.000;0.000;2023-11-25T13:04:02;6.17;;;4.07;;
28958;SDS011;16066;0.000;0.000;2023-11-25T13:06:43;7.30;;;4.37;;
28958;SDS011;16066;0.000;0.000;2023-11-25T13:09:10;6.97;;;4.30;;
28958;SDS011;16066;0.000;0.000;2023-11-25T13:11:35;7.17;;;4.43;;
28958;SDS011;16066;0.000;0.000;2023-11-25T13:14:01;8.43;;;5.10;;
28958;SDS011;16066;0.000;0.000;2023-11-25T13:16:28;10.10;;;4.83;;
28958;SDS011;16066;0.000;0.000;2023-11-25T13:18:53;7.57;;;5.20;;
28958;SDS011;16066;0.000;0.000;2023-11-25T13:21:19;10.30;;;5.60;;
28958;SDS011;16066;0.000;0.000;2023-11-25T13:23:45;7.90;;;4.50;;
28958;SDS011;16066;0.000;0.000;2023-11-25T13:26:10;9.07;;;5.30;;
28958;SDS011;16066;0.000;0.000;2023-11-25T13:28:37;14.03;;;5.10;;
28958;SDS011;16066;0.000;0.000;2023-11-25T13:31:03;10.17;;;5.67;;
28958;SDS011;16066;0.000;0.000;2023-11-25T13:33:30;7.37;;;5.20;;
28958;SDS011;16066;0.000;0.000;2023-11-25T13:35:55;9.33;;;5.40;;
28958;SDS011;16066;0.000;0.000;2023-11-25T13:38:21;11.03;;;6.10;;
28958;SDS011;16066;0.000;0.000;2023-11-25T13:40:46;9.13;;;4.97;;
28958;SDS011;16066;0.000;0.000;2023-11-25T13:43:13;15.63;;;7.13;;
28958;SDS011;16066;0.000;0.000;2023-11-25T13:45:38;10.00;;;6.83;;
28958;SDS011;16066;0.000;0.000;2023-11-25T13:48:04;13.40;;;5.57;;
28958;SDS011;16066;0.000;0.000;2023-11-25T13:50:33;13.30;;;5.37;;
28958;SDS011;16066;0.000;0.000;2023-11-25T13:52:59;13.13;;;5.20;;
28958;SDS011;16066;0.000;0.000;2023-11-25T13:55:26;9.37;;;5.87;;
28958;SDS011;16066;0.000;0.000;2023-11-25T13:57:52;10.30;;;5.33;;
28958;SDS011;16066;0.000;0.000;2023-11-25T14:00:18;12.17;;;6.00;;
28958;SDS011;16066;0.000;0.000;2023-11-25T14:02:47;8.60;;;5.37;;
28958;SDS011;16066;0.000;0.000;2023-11-25T14:05:14;8.73;;;5.00;;
28958;SDS011;16066;0.000;0.000;2023-11-25T14:07:40;8.00;;;4.90;;
28958;SDS011;16066;0.000;0.000;2023-11-25T14:10:09;8.30;;;4.37;;
28958;SDS011;16066;0.000;0.000;2023-11-25T14:12:36;9.27;;;4.27;;
28958;SDS011;16066;0.000;0.000;2023-11-25T14:15:03;7.03;;;4.60;;
28958;SDS011;16066;0.000;0.000;2023-11-25T14:17:32;7.83;;;4.17;;
28958;SDS011;16066;0.000;0.000;2023-11-25T14:20:01;6.43;;;4.00;;
28958;SDS011;16066;0.000;0.000;2023-11-25T14:22:39;8.37;;;4.63;;
28958;SDS011;16066;0.000;0.000;2023-11-25T14:25:09;7.87;;;4.23;;
28958;SDS011;16066;0.000;0.000;2023-11-25T14:27:39;10.70;;;4.37;;
28958;SDS011;16066;0.000;0.000;2023-11-25T14:30:06;8.30;;;4.10;;
28958;SDS011;16066;0.000;0.000;2023-11-25T14:32:32;7.53;;;4.30;;
28958;SDS011;16066;0.000;0.000;2023-11-25T14:34:57;11.47;;;4.27;;
28958;SDS011;16066;0.000;0.000;2023-11-25T14:37:23;9.17;;;4.13;;
28958;SDS011;16066;0.000;0.000;2023-11-25T14:39:51;8.40;;;3.93;;
28958;SDS011;16066;0.000;0.000;2023-11-25T14:42:17;6.40;;;4.10;;
28958;SDS011;16066;0.000;0.000;2023-11-25T14:44:42;8.90;;;4.00;;
28958;SDS011;16066;0.000;0.000;2023-11-25T14:47:09;6.20;;;4.40;;
28958;SDS011;16066;0.000;0.000;2023-11-25T14:49:35;11.80;;;4.50;;
28958;SDS011;16066;0.000;0.000;2023-11-25T14:52:01;5.80;;;3.67;;
28958;SDS011;16066;0.000;0.000;2023-11-25T14:54:27;8.93;;;3.80;;
28958;SDS011;16066;0.000;0.000;2023-11-25T14:56:53;8.13;;;3.60;;
28958;SDS011;16066;0.000;0.000;2023-11-25T14:59:19;5.80;;;3.60;;
28958;SDS011;16066;0.000;0.000;2023-11-25T15:01:45;6.07;;;3.50;;
28958;SDS011;16066;0.000;0.000;2023-11-25T15:04:11;10.17;;;3.40;;
28958;SDS011;16066;0.000;0.000;2023-11-25T15:06:38;9.60;;;4.27;;
28958;SDS011;16066;0.000;0.000;2023-11-25T15:09:04;5.30;;;3.17;;
28958;SDS011;16066;0.000;0.000;2023-11-25T15:11:30;6.33;;;3.17;;
28958;SDS011;16066;0.000;0.000;2023-11-25T15:13:56;5.67;;;2.93;;
28958;SDS011;16066;0.000;0.000;2023-11-25T15:16:21;6.27;;;3.47;;
28958;SDS011;16066;0.000;0.000;2023-11-25T15:18:47;7.67;;;3.43;;
28958;SDS011;16066;0.000;0.000;2023-11-25T15:21:17;5.00;;;3.57;;
28958;SDS011;16066;0.000;0.000;2023-11-25T15:23:43;15.00;;;3.23;;
28958;SDS011;16066;0.000;0.000;2023-11-25T15:26:12;5.80;;;3.73;;
28958;SDS011;16066;0.000;0.000;2023-11-25T15:28:38;6.67;;;3.43;;
28958;SDS011;16066;0.000;0.000;2023-11-25T15:31:05;4.47;;;2.90;;
28958;SDS011;16066;0.000;0.000;2023-11-25T15:33:35;4.40;;;2.70;;
28958;SDS011;16066;0.000;0.000;2023-11-25T15:36:01;5.50;;;2.70;;
28958;SDS011;16066;0.000;0.000;2023-11-25T15:38:26;5.60;;;2.93;;
28958;SDS011;16066;0.000;0.000;2023-11-25T15:40:52;7.17;;;3.70;;
28958;SDS011;16066;0.000;0.000;2023-11-25T15:43:17;9.43;;;2.97;;
28958;SDS011;16066;0.000;0.000;2023-11-25T15:45:43;5.50;;;2.90;;
28958;SDS011;16066;0.000;0.000;2023-11-25T15:48:10;7.10;;;2.87;;
28958;SDS011;16066;0.000;0.000;2023-11-25T15:50:36;5.13;;;2.90;;
28958;SDS011;16066;0.000;0.000;2023-11-25T15:53:02;4.50;;;2.80;;
28958;SDS011;16066;0.000;0.000;2023-11-25T15:55:29;6.40;;;3.00;;
28958;SDS011;16066;0.000;0.000;2023-11-25T15:57:55;6.20;;;3.10;;
28958;SDS011;16066;0.000;0.000;2023-11-25T16:00:21;6.73;;;3.10;;
28958;SDS011;16066;0.000;0.000;2023-11-25T16:02:48;5.73;;;2.90;;
28958;SDS011;16066;0.000;0.000;2023-11-25T16:05:16;8.77;;;4.20;;
28958;SDS011;16066;0.000;0.000;2023-11-25T16:07:43;7.10;;;3.00;;
28958;SDS011;16066;0.000;0.000;2023-11-25T16:10:09;8.90;;;2.87;;
28958;SDS011;16066;0.000;0.000;2023-11-25T16:12:36;4.87;;;3.00;;
28958;SDS011;16066;0.000;0.000;2023-11-25T16:15:01;5.93;;;2.73;;
28958;SDS011;16066;0.000;0.000;2023-11-25T16:17:28;5.00;;;3.03;;
28958;SDS011;16066;0.000;0.000;2023-11-25T16:19:53;5.00;;;2.67;;
28958;SDS011;16066;0.000;0.000;2023-11-25T16:22:19;6.70;;;2.87;;
28958;SDS011;16066;0.000;0.000;2023-11-25T16:24:44;6.53;;;3.07;;
28958;SDS011;16066;0.000;0.000;2023-11-25T16:27:10;4.80;;;3.20;;
28958;SDS011;16066;0.000;0.000;2023-11-25T16:29:35;6.47;;;3.20;;
28958;SDS011;16066;0.000;0.000;2023-11-25T16:32:01;5.90;;;3.10;;
28958;SDS011;16066;0.000;0.000;2023-11-25T16:34:29;6.20;;;3.00;;
28958;SDS011;16066;0.000;0.000;2023-11-25T16:36:55;9.03;;;3.20;;
28958;SDS011;16066;0.000;0.000;2023-11-25T16:39:20;5.10;;;2.53;;
28958;SDS011;16066;0.000;0.000;2023-11-25T16:41:46;4.60;;;2.77;;
28958;SDS011;16066;0.000;0.000;2023-11-25T16:44:18;5.10;;;3.23;;
28958;SDS011;16066;0.000;0.000;2023-11-25T16:46:45;5.70;;;2.77;;
28958;SDS011;16066;0.000;0.000;2023-11-25T16:49:11;3.80;;;2.87;;
28958;SDS011;16066;0.000;0.000;2023-11-25T16:51:37;4.53;;;2.73;;
28958;SDS011;16066;0.000;0.000;2023-11-25T16:54:02;4.13;;;2.57;;
28958;SDS011;16066;0.000;0.000;2023-11-25T16:56:28;3.93;;;2.40;;
28958;SDS011;16066;0.000;0.000;2023-11-25T16:58:54;3.63;;;2.53;;
28958;SDS011;16066;0.000;0.000;2023-11-25T17:01:19;7.23;;;2.63;;
28958;SDS011;16066;0.000;0.000;2023-11-25T17:03:45;3.17;;;2.30;;
28958;SDS011;16066;0.000;0.000;2023-11-25T17:06:11;3.83;;;2.20;;
28958;SDS011;16066;0.000;0.000;2023-11-25T17:08:38;4.40;;;2.77;;
28958;SDS011;16066;0.000;0.000;2023-11-25T17:11:04;4.50;;;2.40;;
28958;SDS011;16066;0.000;0.000;2023-11-25T17:13:29;5.07;;;2.40;;
28958;SDS011;16066;0.000;0.000;2023-11-25T17:15:55;3.07;;;2.20;;
28958;SDS011;16066;0.000;0.000;2023-11-25T17:18:21;5.23;;;2.67;;
28958;SDS011;16066;0.000;0.000;2023-11-25T17:20:46;4.10;;;2.47;;
28958;SDS011;16066;0.000;0.000;2023-11-25T17:23:12;3.27;;;2.40;;
28958;SDS011;16066;0.000;0.000;2023-11-25T17:25:37;4.77;;;2.83;;
28958;SDS011;16066;0.000;0.000;2023-11-25T17:28:03;4.83;;;2.90;;
28958;SDS011;16066;0.000;0.000;2023-11-25T17:30:28;4.57;;;2.60;;
28958;SDS011;16066;0.000;0.000;2023-11-25T17:32:54;5.47;;;2.90;;
28958;SDS011;16066;0.000;0.000;2023-11-25T17:35:19;3.77;;;3.20;;
28958;SDS011;16066;0.000;0.000;2023-11-25T17:37:46;4.27;;;2.37;;
28958;SDS011;16066;0.000;0.000;2023-11-25T17:40:11;4.10;;;2.67;;
28958;SDS011;16066;0.000;0.000;2023-11-25T17:42:37;3.87;;;2.67;;
28958;SDS011;16066;0.000;0.000;2023-11-25T17:45:03;6.00;;;3.37;;
28958;SDS011;16066;0.000;0.000;2023-11-25T17:47:29;3.33;;;2.67;;
28958;SDS011;16066;0.000;0.000;2023-11-25T17:49:54;6.57;;;3.10;;
28958;SDS011;16066;0.000;0.000;2023-11-25T17:52:20;3.40;;;2.37;;
28958;SDS011;16066;0.000;0.000;2023-11-25T17:54:45;4.30;;;2.73;;
28958;SDS011;16066;0.000;0.000;2023-11-25T17:57:11;3.63;;;2.60;;
28958;SDS011;16066;0.000;0.000;2023-11-25T17:59:41;3.90;;;2.40;;
28958;SDS011;16066;0.000;0.000;2023-11-25T18:02:06;3.93;;;2.50;;
28958;SDS011;16066;0.000;0.000;2023-11-25T18:04:32;4.93;;;2.90;;
28958;SDS011;16066;0.000;0.000;2023-11-25T18:06:57;3.60;;;2.80;;
28958;SDS011;16066;0.000;0.000;2023-11-25T18:09:23;4.03;;;2.73;;
28958;SDS011;16066;0.000;0.000;2023-11-25T18:11:49;4.40;;;2.83;;
28958;SDS011;16066;0.000;0.000;2023-11-25T18:14:14;4.23;;;2.60;;
28958;SDS011;16066;0.000;0.000;2023-11-25T18:16:40;4.13;;;2.70;;
28958;SDS011;16066;0.000;0.000;2023-11-25T18:19:10;4.20;;;2.80;;
28958;SDS011;16066;0.000;0.000;2023-11-25T18:21:39;5.50;;;3.13;;
28958;SDS011;16066;0.000;0.000;2023-11-25T18:24:05;4.37;;;2.93;;
28958;SDS011;16066;0.000;0.000;2023-11-25T18:26:31;6.10;;;3.13;;
28958;SDS011;16066;0.000;0.000;2023-11-25T18:28:57;4.10;;;2.83;;
28958;SDS011;16066;0.000;0.000;2023-11-25T18:31:22;4.73;;;3.20;;
28958;SDS011;16066;0.000;0.000;2023-11-25T18:33:48;8.23;;;3.70;;
28958;SDS011;16066;0.000;0.000;2023-11-25T18:36:14;3.83;;;2.70;;
28958;SDS011;16066;0.000;0.000;2023-11-25T18:38:40;5.60;;;3.10;;
28958;SDS011;16066;0.000;0.000;2023-11-25T18:41:06;7.77;;;3.87;;
28958;SDS011;16066;0.000;0.000;2023-11-25T18:43:32;5.73;;;3.67;;
28958;SDS011;16066;0.000;0.000;2023-11-25T18:46:00;5.87;;;3.50;;
28958;SDS011;16066;0.000;0.000;2023-11-25T18:48:30;5.70;;;3.83;;
28958;SDS011;16066;0.000;0.000;2023-11-25T18:51:01;6.97;;;3.90;;
28958;SDS011;16066;0.000;0.000;2023-11-25T18:53:30;5.27;;;3.67;;
28958;SDS011;16066;0.000;0.000;2023-11-25T18:55:57;11.70;;;4.23;;
28958;SDS011;16066;0.000;0.000;2023-11-25T18:58:24;10.40;;;4.27;;
28958;SDS011;16066;0.000;0.000;2023-11-25T19:00:59;7.37;;;4.20;;
28958;SDS011;16066;0.000;0.000;2023-11-25T19:03:24;9.03;;;4.60;;
28958;SDS011;16066;0.000;0.000;2023-11-25T19:05:50;7.43;;;4.63;;
28958;SDS011;16066;0.000;0.000;2023-11-25T19:08:16;8.10;;;4.00;;
28958;SDS011;16066;0.000;0.000;2023-11-25T19:10:42;6.33;;;4.40;;
28958;SDS011;16066;0.000;0.000;2023-11-25T19:13:07;10.23;;;5.10;;
28958;SDS011;16066;0.000;0.000;2023-11-25T19:15:34;8.93;;;5.93;;
28958;SDS011;16066;0.000;0.000;2023-11-25T19:17:59;8.70;;;5.40;;
28958;SDS011;16066;0.000;0.000;2023-11-25T19:20:25;8.83;;;4.93;;
28958;SDS011;16066;0.000;0.000;2023-11-25T19:22:51;6.60;;;4.90;;
28958;SDS011;16066;0.000;0.000;2023-11-25T19:25:17;6.70;;;4.30;;
28958;SDS011;16066;0.000;0.000;2023-11-25T19:27:42;6.50;;;4.73;;
28958;SDS011;16066;0.000;0.000;2023-11-25T19:30:08;9.30;;;4.90;;
28958;SDS011;16066;0.000;0.000;2023-11-25T19:32:34;8.07;;;4.90;;
28958;SDS011;16066;0.000;0.000;2023-11-25T19:34:59;15.37;;;5.40;;
28958;SDS011;16066;0.000;0.000;2023-11-25T19:37:25;8.63;;;5.03;;
28958;SDS011;16066;0.000;0.000;2023-11-25T19:39:50;7.90;;;4.70;;
28958;SDS011;16066;0.000;0.000;2023-11-25T19:42:16;9.30;;;5.03;;
28958;SDS011;16066;0.000;0.000;2023-11-25T19:44:42;8.87;;;4.60;;
28958;SDS011;16066;0.000;0.000;2023-11-25T19:47:08;7.67;;;5.17;;
28958;SDS011;16066;0.000;0.000;2023-11-25T19:49:33;6.10;;;4.40;;
28958;SDS011;16066;0.000;0.000;2023-11-25T19:51:59;8.73;;;4.57;;
28958;SDS011;16066;0.000;0.000;2023-11-25T19:54:25;9.83;;;5.17;;
28958;SDS011;16066;0.000;0.000;2023-11-25T19:56:51;12.07;;;5.57;;
28958;SDS011;16066;0.000;0.000;2023-11-25T19:59:17;10.77;;;6.03;;
28958;SDS011;16066;0.000;0.000;2023-11-25T20:01:43;9.10;;;5.47;;
28958;SDS011;16066;0.000;0.000;2023-11-25T20:04:09;10.17;;;5.20;;
28958;SDS011;16066;0.000;0.000;2023-11-25T20:06:35;8.60;;;5.40;;
28958;SDS011;16066;0.000;0.000;2023-11-25T20:09:01;8.93;;;5.30;;
28958;SDS011;16066;0.000;0.000;2023-11-25T20:11:28;12.60;;;4.73;;
28958;SDS011;16066;0.000;0.000;2023-11-25T20:13:53;12.03;;;6.10;;
28958;SDS011;16066;0.000;0.000;2023-11-25T20:16:19;9.53;;;5.43;;
28958;SDS011;16066;0.000;0.000;2023-11-25T20:18:45;11.77;;;6.37;;
28958;SDS011;16066;0.000;0.000;2023-11-25T20:21:11;10.17;;;4.80;;
28958;SDS011;16066;0.000;0.000;2023-11-25T20:23:36;9.60;;;5.83;;
28958;SDS011;16066;0.000;0.000;2023-11-25T20:26:02;7.13;;;4.97;;
28958;SDS011;16066;0.000;0.000;2023-11-25T20:28:28;11.10;;;5.10;;
28958;SDS011;16066;0.000;0.000;2023-11-25T20:30:54;6.93;;;4.80;;
28958;SDS011;16066;0.000;0.000;2023-11-25T20:33:20;10.50;;;5.37;;
28958;SDS011;16066;0.000;0.000;2023-11-25T20:35:46;13.97;;;6.17;;
28958;SDS011;16066;0.000;0.000;2023-11-25T20:38:16;10.20;;;5.37;;
28958;SDS011;16066;0.000;0.000;2023-11-25T20:40:41;9.50;;;6.03;;
28958;SDS011;16066;0.000;0.000;2023-11-25T20:43:07;12.27;;;5.47;;
28958;SDS011;16066;0.000;0.000;2023-11-25T20:45:33;7.73;;;5.00;;
28958;SDS011;16066;0.000;0.000;2023-11-25T20:47:58;6.40;;;4.60;;
28958;SDS011;16066;0.000;0.000;2023-11-25T20:50:25;10.80;;;6.20;;
28958;SDS011;16066;0.000;0.000;2023-11-25T20:52:51;10.63;;;4.80;;
28958;SDS011;16066;0.000;0.000;2023-11-25T20:55:16;11.47;;;6.10;;
28958;SDS011;16066;0.000;0.000;2023-11-25T20:57:42;13.70;;;6.30;;
28958;SDS011;16066;0.000;0.000;2023-11-25T21:00:08;9.20;;;5.47;;
28958;SDS011;16066;0.000;0.000;2023-11-25T21:02:36;10.10;;;5.43;;
28958;SDS011;16066;0.000;0.000;2023-11-25T21:05:03;12.27;;;5.43;;
28958;SDS011;16066;0.000;0.000;2023-11-25T21:07:30;12.93;;;6.87;;
28958;SDS011;16066;0.000;0.000;2023-11-25T21:09:56;9.70;;;5.50;;
28958;SDS011;16066;0.000;0.000;2023-11-25T21:12:22;8.30;;;5.80;;
28958;SDS011;16066;0.000;0.000;2023-11-25T21:14:48;9.07;;;6.30;;
28958;SDS011;16066;0.000;0.000;2023-11-25T21:17:14;13.83;;;6.37;;
28958;SDS011;16066;0.000;0.000;2023-11-25T21:19:40;9.50;;;5.20;;
28958;SDS011;16066;0.000;0.000;2023-11-25T21:22:05;10.60;;;6.07;;
28958;SDS011;16066;0.000;0.000;2023-11-25T21:24:31;11.10;;;5.60;;
28958;SDS011;16066;0.000;0.000;2023-11-25T21:26:56;10.47;;;6.50;;
28958;SDS011;16066;0.000;0.000;2023-11-25T21:29:22;10.70;;;6.07;;
28958;SDS011;16066;0.000;0.000;2023-11-25T21:31:48;9.70;;;5.67;;
28958;SDS011;16066;0.000;0.000;2023-11-25T21:34:14;8.23;;;5.47;;
28958;SDS011;16066;0.000;0.000;2023-11-25T21:36:40;8.90;;;5.90;;
28958;SDS011;16066;0.000;0.000;2023-11-25T21:39:06;9.80;;;5.23;;